sensor_id;sensor_type;location;lat;lon;timestamp;P1;durP1;ratioP1;P2;durP2;ratioP2
146;SDS011;45999;48.808;9.182;2022-12-20T00:00:43;18.67;;;14.57;;
146;SDS011;45999;48.808;9.182;2022-12-20T00:03:09;18.07;;;12.87;;
146;SDS011;45999;48.808;9.182;2022-12-20T00:05:36;18.60;;;13.33;;
146;SDS011;45999;48.808;9.182;2022-12-20T00:08:05;18.43;;;13.70;;
146;SDS011;45999;48.808;9.182;2022-12-20T00:10:39;19.33;;;14.87;;
146;SDS011;45999;48.808;9.182;2022-12-20T00:13:08;17.57;;;13.97;;
146;SDS011;45999;48.808;9.182;2022-12-20T00:15:35;16.83;;;12.97;;
146;SDS011;45999;48.808;9.182;2022-12-20T00:18:02;20.37;;;14.50;;
146;SDS011;45999;48.808;9.182;2022-12-20T00:20:29;19.37;;;14.90;;
146;SDS011;45999;48.808;9.182;2022-12-20T00:22:55;16.43;;;13.73;;
146;SDS011;45999;48.808;9.182;2022-12-20T00:25:22;19.40;;;14.17;;
146;SDS011;45999;48.808;9.182;2022-12-20T00:27:49;22.47;;;15.60;;
146;SDS011;45999;48.808;9.182;2022-12-20T00:30:16;20.87;;;14.73;;
146;SDS011;45999;48.808;9.182;2022-12-20T00:32:42;18.83;;;14.43;;
146;SDS011;45999;48.808;9.182;2022-12-20T00:35:10;18.33;;;14.03;;
146;SDS011;45999;48.808;9.182;2022-12-20T00:37:36;17.57;;;14.23;;
146;SDS011;45999;48.808;9.182;2022-12-20T00:40:03;18.87;;;14.50;;
146;SDS011;45999;48.808;9.182;2022-12-20T00:42:31;20.40;;;14.83;;
146;SDS011;45999;48.808;9.182;2022-12-20T00:44:58;21.30;;;14.93;;
146;SDS011;45999;48.808;9.182;2022-12-20T00:47:24;20.93;;;15.63;;
146;SDS011;45999;48.808;9.182;2022-12-20T00:49:50;19.77;;;14.23;;
146;SDS011;45999;48.808;9.182;2022-12-20T00:52:17;17.67;;;14.33;;
146;SDS011;45999;48.808;9.182;2022-12-20T00:54:43;19.87;;;15.60;;
146;SDS011;45999;48.808;9.182;2022-12-20T00:57:09;20.60;;;14.87;;
146;SDS011;45999;48.808;9.182;2022-12-20T00:59:36;20.63;;;14.70;;
146;SDS011;45999;48.808;9.182;2022-12-20T01:02:02;19.87;;;14.60;;
146;SDS011;45999;48.808;9.182;2022-12-20T01:04:28;19.23;;;15.13;;
146;SDS011;45999;48.808;9.182;2022-12-20T01:06:55;18.00;;;13.97;;
146;SDS011;45999;48.808;9.182;2022-12-20T01:09:21;21.10;;;14.40;;
146;SDS011;45999;48.808;9.182;2022-12-20T01:11:47;18.67;;;14.53;;
146;SDS011;45999;48.808;9.182;2022-12-20T01:14:14;18.03;;;14.63;;
146;SDS011;45999;48.808;9.182;2022-12-20T01:16:44;16.23;;;14.30;;
146;SDS011;45999;48.808;9.182;2022-12-20T01:19:13;18.47;;;14.30;;
146;SDS011;45999;48.808;9.182;2022-12-20T01:21:41;21.00;;;14.90;;
146;SDS011;45999;48.808;9.182;2022-12-20T01:24:10;19.30;;;14.43;;
146;SDS011;45999;48.808;9.182;2022-12-20T01:26:40;18.70;;;15.07;;
146;SDS011;45999;48.808;9.182;2022-12-20T01:29:07;18.67;;;14.37;;
146;SDS011;45999;48.808;9.182;2022-12-20T01:31:33;19.23;;;14.83;;
146;SDS011;45999;48.808;9.182;2022-12-20T01:34:00;18.97;;;14.97;;
146;SDS011;45999;48.808;9.182;2022-12-20T01:36:31;21.40;;;15.07;;
146;SDS011;45999;48.808;9.182;2022-12-20T01:39:06;19.37;;;14.07;;
146;SDS011;45999;48.808;9.182;2022-12-20T01:41:36;16.33;;;13.77;;
146;SDS011;45999;48.808;9.182;2022-12-20T01:44:05;17.47;;;13.47;;
146;SDS011;45999;48.808;9.182;2022-12-20T01:46:52;18.40;;;14.77;;
146;SDS011;45999;48.808;9.182;2022-12-20T01:49:23;18.90;;;14.60;;
146;SDS011;45999;48.808;9.182;2022-12-20T01:54:31;18.87;;;14.63;;
146;SDS011;45999;48.808;9.182;2022-12-20T01:57:02;18.77;;;13.73;;
146;SDS011;45999;48.808;9.182;2022-12-20T01:59:34;19.03;;;14.53;;
146;SDS011;45999;48.808;9.182;2022-12-20T02:02:04;17.90;;;13.53;;
146;SDS011;45999;48.808;9.182;2022-12-20T02:04:34;16.40;;;13.60;;
146;SDS011;45999;48.808;9.182;2022-12-20T02:07:01;16.17;;;12.73;;
146;SDS011;45999;48.808;9.182;2022-12-20T02:09:28;17.33;;;14.17;;
146;SDS011;45999;48.808;9.182;2022-12-20T02:23:34;16.77;;;13.33;;
146;SDS011;45999;48.808;9.182;2022-12-20T02:26:19;17.67;;;13.57;;
146;SDS011;45999;48.808;9.182;2022-12-20T02:29:35;17.23;;;14.23;;
146;SDS011;45999;48.808;9.182;2022-12-20T02:34:37;17.63;;;13.17;;
146;SDS011;45999;48.808;9.182;2022-12-20T02:37:06;16.00;;;13.20;;
146;SDS011;45999;48.808;9.182;2022-12-20T02:39:32;17.50;;;13.10;;
146;SDS011;45999;48.808;9.182;2022-12-20T02:42:02;18.30;;;13.23;;
146;SDS011;45999;48.808;9.182;2022-12-20T02:44:32;17.50;;;13.60;;
146;SDS011;45999;48.808;9.182;2022-12-20T02:47:39;19.20;;;14.10;;
146;SDS011;45999;48.808;9.182;2022-12-20T02:50:19;16.43;;;13.30;;
146;SDS011;45999;48.808;9.182;2022-12-20T02:52:49;18.20;;;13.97;;
146;SDS011;45999;48.808;9.182;2022-12-20T02:55:17;17.17;;;13.30;;
146;SDS011;45999;48.808;9.182;2022-12-20T03:00:12;17.50;;;13.30;;
146;SDS011;45999;48.808;9.182;2022-12-20T03:02:40;18.23;;;13.10;;
146;SDS011;45999;48.808;9.182;2022-12-20T03:05:25;14.37;;;12.53;;
146;SDS011;45999;48.808;9.182;2022-12-20T03:07:53;18.40;;;14.23;;
146;SDS011;45999;48.808;9.182;2022-12-20T03:10:20;17.20;;;13.10;;
146;SDS011;45999;48.808;9.182;2022-12-20T03:12:47;16.90;;;13.30;;
146;SDS011;45999;48.808;9.182;2022-12-20T03:15:13;17.07;;;13.03;;
146;SDS011;45999;48.808;9.182;2022-12-20T03:17:40;15.53;;;12.40;;
146;SDS011;45999;48.808;9.182;2022-12-20T03:20:06;17.10;;;13.53;;
146;SDS011;45999;48.808;9.182;2022-12-20T03:22:35;18.93;;;13.33;;
146;SDS011;45999;48.808;9.182;2022-12-20T03:25:02;17.07;;;13.17;;
146;SDS011;45999;48.808;9.182;2022-12-20T03:27:28;17.53;;;12.53;;
146;SDS011;45999;48.808;9.182;2022-12-20T03:29:55;18.03;;;13.07;;
146;SDS011;45999;48.808;9.182;2022-12-20T03:32:21;16.27;;;12.80;;
146;SDS011;45999;48.808;9.182;2022-12-20T03:34:48;16.97;;;13.10;;
146;SDS011;45999;48.808;9.182;2022-12-20T03:37:14;16.67;;;12.47;;
146;SDS011;45999;48.808;9.182;2022-12-20T03:39:41;17.03;;;13.33;;
146;SDS011;45999;48.808;9.182;2022-12-20T03:42:07;18.03;;;13.10;;
146;SDS011;45999;48.808;9.182;2022-12-20T03:44:34;18.00;;;13.33;;
146;SDS011;45999;48.808;9.182;2022-12-20T03:47:00;18.53;;;13.20;;
146;SDS011;45999;48.808;9.182;2022-12-20T03:49:26;20.53;;;14.70;;
146;SDS011;45999;48.808;9.182;2022-12-20T03:51:53;18.50;;;13.00;;
146;SDS011;45999;48.808;9.182;2022-12-20T03:54:19;20.37;;;14.37;;
146;SDS011;45999;48.808;9.182;2022-12-20T03:56:45;17.13;;;13.13;;
146;SDS011;45999;48.808;9.182;2022-12-20T03:59:12;16.57;;;13.47;;
146;SDS011;45999;48.808;9.182;2022-12-20T04:01:38;19.67;;;14.40;;
146;SDS011;45999;48.808;9.182;2022-12-20T04:04:06;18.37;;;13.90;;
146;SDS011;45999;48.808;9.182;2022-12-20T04:06:35;19.10;;;13.83;;
146;SDS011;45999;48.808;9.182;2022-12-20T04:09:01;18.37;;;13.37;;
146;SDS011;45999;48.808;9.182;2022-12-20T04:11:27;17.93;;;13.53;;
146;SDS011;45999;48.808;9.182;2022-12-20T04:13:54;17.53;;;13.20;;
146;SDS011;45999;48.808;9.182;2022-12-20T04:16:24;16.70;;;12.50;;
146;SDS011;45999;48.808;9.182;2022-12-20T04:18:52;16.33;;;12.97;;
146;SDS011;45999;48.808;9.182;2022-12-20T04:21:22;17.13;;;12.63;;
146;SDS011;45999;48.808;9.182;2022-12-20T04:23:50;16.40;;;12.53;;
146;SDS011;45999;48.808;9.182;2022-12-20T04:26:17;16.60;;;12.37;;
146;SDS011;45999;48.808;9.182;2022-12-20T04:28:43;18.47;;;11.70;;
146;SDS011;45999;48.808;9.182;2022-12-20T04:31:10;14.97;;;11.40;;
146;SDS011;45999;48.808;9.182;2022-12-20T04:33:37;16.63;;;12.07;;
146;SDS011;45999;48.808;9.182;2022-12-20T04:36:04;16.20;;;12.20;;
146;SDS011;45999;48.808;9.182;2022-12-20T04:38:31;15.23;;;12.17;;
146;SDS011;45999;48.808;9.182;2022-12-20T04:40:58;16.63;;;12.33;;
146;SDS011;45999;48.808;9.182;2022-12-20T04:43:24;15.97;;;11.17;;
146;SDS011;45999;48.808;9.182;2022-12-20T04:45:52;15.27;;;11.63;;
146;SDS011;45999;48.808;9.182;2022-12-20T04:48:21;15.17;;;11.20;;
146;SDS011;45999;48.808;9.182;2022-12-20T04:50:51;15.97;;;11.23;;
146;SDS011;45999;48.808;9.182;2022-12-20T04:53:18;14.97;;;11.30;;
146;SDS011;45999;48.808;9.182;2022-12-20T04:56:03;15.53;;;11.53;;
146;SDS011;45999;48.808;9.182;2022-12-20T04:58:29;15.53;;;11.27;;
146;SDS011;45999;48.808;9.182;2022-12-20T05:00:56;16.73;;;11.43;;
146;SDS011;45999;48.808;9.182;2022-12-20T05:03:23;15.23;;;11.80;;
146;SDS011;45999;48.808;9.182;2022-12-20T05:05:51;16.23;;;11.97;;
146;SDS011;45999;48.808;9.182;2022-12-20T05:08:18;15.03;;;11.87;;
146;SDS011;45999;48.808;9.182;2022-12-20T05:10:44;16.83;;;11.43;;
146;SDS011;45999;48.808;9.182;2022-12-20T05:13:12;16.53;;;12.67;;
146;SDS011;45999;48.808;9.182;2022-12-20T05:15:39;16.10;;;12.07;;
146;SDS011;45999;48.808;9.182;2022-12-20T05:18:05;14.57;;;11.70;;
146;SDS011;45999;48.808;9.182;2022-12-20T05:20:32;14.47;;;11.43;;
146;SDS011;45999;48.808;9.182;2022-12-20T05:22:58;17.30;;;12.37;;
146;SDS011;45999;48.808;9.182;2022-12-20T05:25:43;16.43;;;11.53;;
146;SDS011;45999;48.808;9.182;2022-12-20T05:28:29;16.17;;;12.53;;
146;SDS011;45999;48.808;9.182;2022-12-20T05:30:56;18.43;;;12.17;;
146;SDS011;45999;48.808;9.182;2022-12-20T05:33:22;16.43;;;12.60;;
146;SDS011;45999;48.808;9.182;2022-12-20T05:35:48;19.80;;;12.90;;
146;SDS011;45999;48.808;9.182;2022-12-20T05:38:15;18.70;;;11.63;;
146;SDS011;45999;48.808;9.182;2022-12-20T05:40:41;14.80;;;11.37;;
146;SDS011;45999;48.808;9.182;2022-12-20T05:43:08;13.90;;;10.93;;
146;SDS011;45999;48.808;9.182;2022-12-20T05:45:35;16.17;;;11.77;;
146;SDS011;45999;48.808;9.182;2022-12-20T05:48:02;15.57;;;11.30;;
146;SDS011;45999;48.808;9.182;2022-12-20T05:50:28;15.37;;;11.70;;
146;SDS011;45999;48.808;9.182;2022-12-20T05:52:55;16.23;;;11.23;;
146;SDS011;45999;48.808;9.182;2022-12-20T05:55:21;16.67;;;11.93;;
146;SDS011;45999;48.808;9.182;2022-12-20T05:57:47;13.87;;;11.40;;
146;SDS011;45999;48.808;9.182;2022-12-20T06:00:14;16.53;;;12.30;;
146;SDS011;45999;48.808;9.182;2022-12-20T06:02:41;15.13;;;11.87;;
146;SDS011;45999;48.808;9.182;2022-12-20T06:05:07;15.83;;;11.60;;
146;SDS011;45999;48.808;9.182;2022-12-20T06:07:34;15.17;;;11.80;;
146;SDS011;45999;48.808;9.182;2022-12-20T06:10:00;15.67;;;11.70;;
146;SDS011;45999;48.808;9.182;2022-12-20T06:12:27;14.87;;;11.87;;
146;SDS011;45999;48.808;9.182;2022-12-20T06:14:53;15.00;;;11.83;;
146;SDS011;45999;48.808;9.182;2022-12-20T06:17:19;14.63;;;11.37;;
146;SDS011;45999;48.808;9.182;2022-12-20T06:19:46;15.77;;;11.53;;
146;SDS011;45999;48.808;9.182;2022-12-20T06:22:12;15.07;;;11.57;;
146;SDS011;45999;48.808;9.182;2022-12-20T06:24:39;15.37;;;11.37;;
146;SDS011;45999;48.808;9.182;2022-12-20T06:27:05;13.50;;;10.80;;
146;SDS011;45999;48.808;9.182;2022-12-20T06:29:32;14.97;;;10.87;;
146;SDS011;45999;48.808;9.182;2022-12-20T06:31:58;15.47;;;11.30;;
146;SDS011;45999;48.808;9.182;2022-12-20T06:34:25;14.20;;;11.03;;
146;SDS011;45999;48.808;9.182;2022-12-20T06:36:52;15.17;;;11.63;;
146;SDS011;45999;48.808;9.182;2022-12-20T06:39:18;15.33;;;10.77;;
146;SDS011;45999;48.808;9.182;2022-12-20T06:41:44;14.33;;;11.17;;
146;SDS011;45999;48.808;9.182;2022-12-20T06:44:11;16.17;;;11.17;;
146;SDS011;45999;48.808;9.182;2022-12-20T06:46:37;13.77;;;11.20;;
146;SDS011;45999;48.808;9.182;2022-12-20T06:49:03;14.50;;;11.83;;
146;SDS011;45999;48.808;9.182;2022-12-20T06:51:30;14.73;;;10.87;;
146;SDS011;45999;48.808;9.182;2022-12-20T06:53:56;15.97;;;11.30;;
146;SDS011;45999;48.808;9.182;2022-12-20T06:56:22;13.37;;;10.23;;
146;SDS011;45999;48.808;9.182;2022-12-20T06:58:49;11.40;;;9.87;;
146;SDS011;45999;48.808;9.182;2022-12-20T07:01:15;13.13;;;10.97;;
146;SDS011;45999;48.808;9.182;2022-12-20T07:03:41;15.30;;;10.97;;
146;SDS011;45999;48.808;9.182;2022-12-20T07:06:08;15.70;;;11.33;;
146;SDS011;45999;48.808;9.182;2022-12-20T07:08:34;12.87;;;10.93;;
146;SDS011;45999;48.808;9.182;2022-12-20T07:11:06;14.47;;;10.30;;
146;SDS011;45999;48.808;9.182;2022-12-20T07:13:33;13.13;;;10.27;;
146;SDS011;45999;48.808;9.182;2022-12-20T07:16:00;15.30;;;11.57;;
146;SDS011;45999;48.808;9.182;2022-12-20T07:18:28;14.07;;;10.53;;
146;SDS011;45999;48.808;9.182;2022-12-20T07:20:58;14.00;;;11.07;;
146;SDS011;45999;48.808;9.182;2022-12-20T07:23:25;15.57;;;11.40;;
146;SDS011;45999;48.808;9.182;2022-12-20T07:25:52;14.33;;;10.80;;
146;SDS011;45999;48.808;9.182;2022-12-20T07:28:20;12.93;;;10.37;;
146;SDS011;45999;48.808;9.182;2022-12-20T07:30:46;12.83;;;10.10;;
146;SDS011;45999;48.808;9.182;2022-12-20T07:33:13;13.30;;;9.93;;
146;SDS011;45999;48.808;9.182;2022-12-20T07:35:39;15.13;;;10.40;;
146;SDS011;45999;48.808;9.182;2022-12-20T07:38:05;13.43;;;10.03;;
146;SDS011;45999;48.808;9.182;2022-12-20T07:40:32;13.90;;;10.10;;
146;SDS011;45999;48.808;9.182;2022-12-20T07:45:53;14.33;;;9.27;;
146;SDS011;45999;48.808;9.182;2022-12-20T07:48:21;15.97;;;10.23;;
146;SDS011;45999;48.808;9.182;2022-12-20T07:50:50;15.43;;;9.77;;
146;SDS011;45999;48.808;9.182;2022-12-20T07:53:19;12.43;;;9.33;;
146;SDS011;45999;48.808;9.182;2022-12-20T07:55:48;11.87;;;9.53;;
146;SDS011;45999;48.808;9.182;2022-12-20T07:58:14;14.63;;;9.43;;
146;SDS011;45999;48.808;9.182;2022-12-20T08:00:42;12.30;;;9.03;;
146;SDS011;45999;48.808;9.182;2022-12-20T08:03:14;12.33;;;9.40;;
146;SDS011;45999;48.808;9.182;2022-12-20T08:05:45;13.33;;;9.87;;
146;SDS011;45999;48.808;9.182;2022-12-20T08:08:14;12.87;;;9.47;;
146;SDS011;45999;48.808;9.182;2022-12-20T08:10:42;10.97;;;8.60;;
146;SDS011;45999;48.808;9.182;2022-12-20T08:13:08;12.43;;;9.27;;
146;SDS011;45999;48.808;9.182;2022-12-20T08:15:35;12.00;;;9.57;;
146;SDS011;45999;48.808;9.182;2022-12-20T08:18:02;12.63;;;9.33;;
146;SDS011;45999;48.808;9.182;2022-12-20T08:20:30;13.17;;;9.23;;
146;SDS011;45999;48.808;9.182;2022-12-20T08:22:56;13.50;;;9.27;;
146;SDS011;45999;48.808;9.182;2022-12-20T08:25:23;11.00;;;8.70;;
146;SDS011;45999;48.808;9.182;2022-12-20T08:27:49;13.80;;;9.57;;
146;SDS011;45999;48.808;9.182;2022-12-20T08:30:17;11.50;;;8.67;;
146;SDS011;45999;48.808;9.182;2022-12-20T08:32:43;18.20;;;9.80;;
146;SDS011;45999;48.808;9.182;2022-12-20T08:35:09;13.13;;;9.50;;
146;SDS011;45999;48.808;9.182;2022-12-20T08:37:36;13.03;;;9.63;;
146;SDS011;45999;48.808;9.182;2022-12-20T08:40:03;12.63;;;9.30;;
146;SDS011;45999;48.808;9.182;2022-12-20T08:42:31;13.80;;;9.50;;
146;SDS011;45999;48.808;9.182;2022-12-20T08:44:57;13.07;;;9.63;;
146;SDS011;45999;48.808;9.182;2022-12-20T08:47:24;13.40;;;8.93;;
146;SDS011;45999;48.808;9.182;2022-12-20T08:49:50;10.70;;;8.53;;
146;SDS011;45999;48.808;9.182;2022-12-20T08:52:16;12.80;;;9.10;;
146;SDS011;45999;48.808;9.182;2022-12-20T08:54:43;13.00;;;8.47;;
146;SDS011;45999;48.808;9.182;2022-12-20T08:57:09;9.53;;;7.90;;
146;SDS011;45999;48.808;9.182;2022-12-20T08:59:35;12.13;;;8.17;;
146;SDS011;45999;48.808;9.182;2022-12-20T09:02:02;11.67;;;8.07;;
146;SDS011;45999;48.808;9.182;2022-12-20T09:04:28;12.57;;;8.43;;
146;SDS011;45999;48.808;9.182;2022-12-20T09:06:55;11.80;;;8.27;;
146;SDS011;45999;48.808;9.182;2022-12-20T09:09:21;10.37;;;7.83;;
146;SDS011;45999;48.808;9.182;2022-12-20T09:11:47;9.30;;;7.77;;
146;SDS011;45999;48.808;9.182;2022-12-20T09:14:14;9.67;;;7.93;;
146;SDS011;45999;48.808;9.182;2022-12-20T09:16:40;11.80;;;8.30;;
146;SDS011;45999;48.808;9.182;2022-12-20T09:19:06;11.90;;;8.10;;
146;SDS011;45999;48.808;9.182;2022-12-20T09:21:33;14.97;;;8.03;;
146;SDS011;45999;48.808;9.182;2022-12-20T09:24:00;11.33;;;8.10;;
146;SDS011;45999;48.808;9.182;2022-12-20T09:26:26;10.13;;;8.20;;
146;SDS011;45999;48.808;9.182;2022-12-20T09:28:52;11.80;;;7.53;;
146;SDS011;45999;48.808;9.182;2022-12-20T09:31:20;10.80;;;7.53;;
146;SDS011;45999;48.808;9.182;2022-12-20T09:33:51;10.33;;;7.43;;
146;SDS011;45999;48.808;9.182;2022-12-20T09:36:19;11.80;;;7.40;;
146;SDS011;45999;48.808;9.182;2022-12-20T09:38:47;8.97;;;7.17;;
146;SDS011;45999;48.808;9.182;2022-12-20T09:43:53;9.77;;;7.53;;
146;SDS011;45999;48.808;9.182;2022-12-20T09:46:20;12.00;;;8.60;;
146;SDS011;45999;48.808;9.182;2022-12-20T09:48:48;11.57;;;8.00;;
146;SDS011;45999;48.808;9.182;2022-12-20T09:56:35;10.93;;;7.80;;
146;SDS011;45999;48.808;9.182;2022-12-20T09:59:14;9.23;;;7.47;;
146;SDS011;45999;48.808;9.182;2022-12-20T10:01:44;10.53;;;7.90;;
146;SDS011;45999;48.808;9.182;2022-12-20T10:04:26;10.23;;;7.77;;
146;SDS011;45999;48.808;9.182;2022-12-20T10:07:00;10.00;;;7.77;;
146;SDS011;45999;48.808;9.182;2022-12-20T10:12:58;10.37;;;7.63;;
146;SDS011;45999;48.808;9.182;2022-12-20T10:15:39;12.37;;;8.00;;
146;SDS011;45999;48.808;9.182;2022-12-20T10:21:08;12.37;;;8.23;;
146;SDS011;45999;48.808;9.182;2022-12-20T10:23:49;9.77;;;7.93;;
146;SDS011;45999;48.808;9.182;2022-12-20T10:26:22;14.83;;;8.93;;
146;SDS011;45999;48.808;9.182;2022-12-20T10:28:48;11.70;;;8.20;;
146;SDS011;45999;48.808;9.182;2022-12-20T10:31:15;10.97;;;8.60;;
146;SDS011;45999;48.808;9.182;2022-12-20T10:33:43;14.50;;;8.70;;
146;SDS011;45999;48.808;9.182;2022-12-20T10:36:17;13.80;;;8.80;;
146;SDS011;45999;48.808;9.182;2022-12-20T10:38:53;9.17;;;8.23;;
146;SDS011;45999;48.808;9.182;2022-12-20T10:41:25;10.03;;;7.80;;
146;SDS011;45999;48.808;9.182;2022-12-20T10:44:00;11.60;;;8.50;;
146;SDS011;45999;48.808;9.182;2022-12-20T10:46:36;11.47;;;8.17;;
146;SDS011;45999;48.808;9.182;2022-12-20T10:51:56;9.70;;;7.47;;
146;SDS011;45999;48.808;9.182;2022-12-20T10:54:29;12.27;;;8.60;;
146;SDS011;45999;48.808;9.182;2022-12-20T10:56:56;10.07;;;7.60;;
146;SDS011;45999;48.808;9.182;2022-12-20T10:59:29;10.43;;;8.07;;
146;SDS011;45999;48.808;9.182;2022-12-20T11:01:59;12.17;;;7.80;;
146;SDS011;45999;48.808;9.182;2022-12-20T11:04:30;8.67;;;7.70;;
146;SDS011;45999;48.808;9.182;2022-12-20T11:07:20;9.07;;;7.47;;
146;SDS011;45999;48.808;9.182;2022-12-20T11:09:53;10.83;;;7.93;;
146;SDS011;45999;48.808;9.182;2022-12-20T11:12:21;11.63;;;7.13;;
146;SDS011;45999;48.808;9.182;2022-12-20T11:14:48;8.90;;;7.30;;
146;SDS011;45999;48.808;9.182;2022-12-20T11:19:57;10.10;;;7.87;;
146;SDS011;45999;48.808;9.182;2022-12-20T11:30:32;9.23;;;7.40;;
146;SDS011;45999;48.808;9.182;2022-12-20T11:36:17;8.23;;;6.43;;
146;SDS011;45999;48.808;9.182;2022-12-20T11:39:12;7.60;;;6.90;;
146;SDS011;45999;48.808;9.182;2022-12-20T11:41:49;12.00;;;7.53;;
146;SDS011;45999;48.808;9.182;2022-12-20T11:49:57;9.40;;;7.23;;
146;SDS011;45999;48.808;9.182;2022-12-20T12:00:19;7.93;;;7.10;;
146;SDS011;45999;48.808;9.182;2022-12-20T12:02:47;11.17;;;6.97;;
146;SDS011;45999;48.808;9.182;2022-12-20T12:07:56;8.80;;;6.83;;
146;SDS011;45999;48.808;9.182;2022-12-20T12:10:30;11.20;;;6.77;;
146;SDS011;45999;48.808;9.182;2022-12-20T12:13:13;10.60;;;7.40;;
146;SDS011;45999;48.808;9.182;2022-12-20T12:15:53;9.40;;;6.50;;
146;SDS011;45999;48.808;9.182;2022-12-20T12:18:28;12.07;;;7.37;;
146;SDS011;45999;48.808;9.182;2022-12-20T12:26:35;7.80;;;6.63;;
146;SDS011;45999;48.808;9.182;2022-12-20T12:31:35;10.03;;;7.17;;
146;SDS011;45999;48.808;9.182;2022-12-20T12:34:09;9.17;;;6.83;;
146;SDS011;45999;48.808;9.182;2022-12-20T12:50:27;10.23;;;6.80;;
146;SDS011;45999;48.808;9.182;2022-12-20T12:52:57;9.20;;;7.00;;
146;SDS011;45999;48.808;9.182;2022-12-20T13:00:58;8.70;;;6.13;;
146;SDS011;45999;48.808;9.182;2022-12-20T13:03:41;7.10;;;6.20;;
146;SDS011;45999;48.808;9.182;2022-12-20T13:16:49;12.13;;;7.00;;
146;SDS011;45999;48.808;9.182;2022-12-20T13:21:46;8.70;;;6.83;;
146;SDS011;45999;48.808;9.182;2022-12-20T13:24:34;9.43;;;7.00;;
146;SDS011;45999;48.808;9.182;2022-12-20T13:27:12;8.90;;;6.97;;
146;SDS011;45999;48.808;9.182;2022-12-20T13:37:54;8.63;;;6.67;;
146;SDS011;45999;48.808;9.182;2022-12-20T13:43:05;8.50;;;6.10;;
146;SDS011;45999;48.808;9.182;2022-12-20T13:45:42;5.83;;;5.23;;
146;SDS011;45999;48.808;9.182;2022-12-20T13:48:16;7.50;;;6.50;;
146;SDS011;45999;48.808;9.182;2022-12-20T13:50:48;7.67;;;5.80;;
146;SDS011;45999;48.808;9.182;2022-12-20T13:53:18;11.40;;;6.53;;
146;SDS011;45999;48.808;9.182;2022-12-20T13:55:47;7.23;;;6.23;;
146;SDS011;45999;48.808;9.182;2022-12-20T13:58:32;14.50;;;6.87;;
146;SDS011;45999;48.808;9.182;2022-12-20T14:01:06;10.77;;;7.27;;
146;SDS011;45999;48.808;9.182;2022-12-20T14:03:41;9.53;;;7.47;;
146;SDS011;45999;48.808;9.182;2022-12-20T14:06:12;8.23;;;7.43;;
146;SDS011;45999;48.808;9.182;2022-12-20T14:08:40;10.00;;;7.53;;
146;SDS011;45999;48.808;9.182;2022-12-20T14:13:50;11.27;;;8.13;;
146;SDS011;45999;48.808;9.182;2022-12-20T14:16:18;12.53;;;8.03;;
146;SDS011;45999;48.808;9.182;2022-12-20T14:19:10;11.33;;;8.97;;
146;SDS011;45999;48.808;9.182;2022-12-20T14:21:40;10.67;;;7.43;;
146;SDS011;45999;48.808;9.182;2022-12-20T14:24:12;9.87;;;7.73;;
146;SDS011;45999;48.808;9.182;2022-12-20T14:26:42;11.80;;;7.93;;
146;SDS011;45999;48.808;9.182;2022-12-20T14:29:17;10.73;;;8.37;;
146;SDS011;45999;48.808;9.182;2022-12-20T14:31:46;10.50;;;8.20;;
146;SDS011;45999;48.808;9.182;2022-12-20T14:34:15;9.30;;;7.90;;
146;SDS011;45999;48.808;9.182;2022-12-20T14:36:46;13.40;;;8.20;;
146;SDS011;45999;48.808;9.182;2022-12-20T14:39:33;9.13;;;7.50;;
146;SDS011;45999;48.808;9.182;2022-12-20T14:42:00;12.03;;;8.13;;
146;SDS011;45999;48.808;9.182;2022-12-20T14:44:29;10.90;;;7.70;;
146;SDS011;45999;48.808;9.182;2022-12-20T14:46:57;12.60;;;7.93;;
146;SDS011;45999;48.808;9.182;2022-12-20T14:49:28;13.07;;;8.03;;
146;SDS011;45999;48.808;9.182;2022-12-20T14:52:16;11.07;;;7.57;;
146;SDS011;45999;48.808;9.182;2022-12-20T14:54:56;13.97;;;8.27;;
146;SDS011;45999;48.808;9.182;2022-12-20T15:02:48;10.63;;;7.50;;
146;SDS011;45999;48.808;9.182;2022-12-20T15:08:12;9.47;;;7.03;;
146;SDS011;45999;48.808;9.182;2022-12-20T15:10:46;7.33;;;6.60;;
146;SDS011;45999;48.808;9.182;2022-12-20T15:13:16;10.43;;;7.70;;
146;SDS011;45999;48.808;9.182;2022-12-20T15:15:44;10.33;;;7.20;;
146;SDS011;45999;48.808;9.182;2022-12-20T15:18:12;10.27;;;7.37;;
146;SDS011;45999;48.808;9.182;2022-12-20T15:20:43;10.33;;;7.43;;
146;SDS011;45999;48.808;9.182;2022-12-20T15:23:16;8.50;;;6.37;;
146;SDS011;45999;48.808;9.182;2022-12-20T15:25:47;10.13;;;7.27;;
146;SDS011;45999;48.808;9.182;2022-12-20T15:28:14;10.17;;;7.33;;
146;SDS011;45999;48.808;9.182;2022-12-20T15:30:44;8.53;;;6.93;;
146;SDS011;45999;48.808;9.182;2022-12-20T15:33:21;10.63;;;7.67;;
146;SDS011;45999;48.808;9.182;2022-12-20T15:35:50;8.80;;;7.17;;
146;SDS011;45999;48.808;9.182;2022-12-20T15:38:26;11.70;;;7.87;;
146;SDS011;45999;48.808;9.182;2022-12-20T15:40:54;11.53;;;8.40;;
146;SDS011;45999;48.808;9.182;2022-12-20T15:43:25;12.33;;;8.67;;
146;SDS011;45999;48.808;9.182;2022-12-20T15:45:52;10.07;;;8.27;;
146;SDS011;45999;48.808;9.182;2022-12-20T15:48:20;9.13;;;7.33;;
146;SDS011;45999;48.808;9.182;2022-12-20T15:50:49;12.33;;;8.27;;
146;SDS011;45999;48.808;9.182;2022-12-20T15:53:19;8.77;;;7.83;;
146;SDS011;45999;48.808;9.182;2022-12-20T15:55:49;12.90;;;8.23;;
146;SDS011;45999;48.808;9.182;2022-12-20T15:58:16;9.43;;;7.70;;
146;SDS011;45999;48.808;9.182;2022-12-20T16:00:43;11.20;;;8.33;;
146;SDS011;45999;48.808;9.182;2022-12-20T16:03:13;11.13;;;8.03;;
146;SDS011;45999;48.808;9.182;2022-12-20T16:05:45;11.17;;;8.47;;
146;SDS011;45999;48.808;9.182;2022-12-20T16:08:12;14.20;;;9.10;;
146;SDS011;45999;48.808;9.182;2022-12-20T16:10:40;11.37;;;8.23;;
146;SDS011;45999;48.808;9.182;2022-12-20T16:13:09;11.87;;;8.53;;
146;SDS011;45999;48.808;9.182;2022-12-20T16:15:39;13.33;;;8.50;;
146;SDS011;45999;48.808;9.182;2022-12-20T16:18:06;13.17;;;9.50;;
146;SDS011;45999;48.808;9.182;2022-12-20T16:20:32;12.70;;;8.80;;
146;SDS011;45999;48.808;9.182;2022-12-20T16:22:59;11.40;;;8.83;;
146;SDS011;45999;48.808;9.182;2022-12-20T16:25:29;11.23;;;9.10;;
146;SDS011;45999;48.808;9.182;2022-12-20T16:27:57;10.00;;;8.47;;
146;SDS011;45999;48.808;9.182;2022-12-20T16:30:24;11.03;;;8.90;;
146;SDS011;45999;48.808;9.182;2022-12-20T16:32:51;12.20;;;8.43;;
146;SDS011;45999;48.808;9.182;2022-12-20T16:35:39;14.13;;;8.43;;
146;SDS011;45999;48.808;9.182;2022-12-20T16:38:04;10.77;;;8.77;;
146;SDS011;45999;48.808;9.182;2022-12-20T16:40:31;13.37;;;8.40;;
146;SDS011;45999;48.808;9.182;2022-12-20T16:42:58;10.43;;;8.23;;
146;SDS011;45999;48.808;9.182;2022-12-20T16:45:26;11.23;;;8.87;;
146;SDS011;45999;48.808;9.182;2022-12-20T16:47:55;11.40;;;8.70;;
146;SDS011;45999;48.808;9.182;2022-12-20T16:50:22;12.87;;;8.53;;
146;SDS011;45999;48.808;9.182;2022-12-20T16:52:50;9.87;;;8.33;;
146;SDS011;45999;48.808;9.182;2022-12-20T16:55:23;12.47;;;8.47;;
146;SDS011;45999;48.808;9.182;2022-12-20T16:57:51;11.47;;;8.33;;
146;SDS011;45999;48.808;9.182;2022-12-20T17:00:23;10.93;;;8.27;;
146;SDS011;45999;48.808;9.182;2022-12-20T17:02:51;12.90;;;8.67;;
146;SDS011;45999;48.808;9.182;2022-12-20T17:07:50;11.30;;;7.90;;
146;SDS011;45999;48.808;9.182;2022-12-20T17:10:16;11.70;;;8.70;;
146;SDS011;45999;48.808;9.182;2022-12-20T17:12:43;13.70;;;9.00;;
146;SDS011;45999;48.808;9.182;2022-12-20T17:15:27;10.23;;;8.47;;
146;SDS011;45999;48.808;9.182;2022-12-20T17:17:55;11.13;;;8.40;;
146;SDS011;45999;48.808;9.182;2022-12-20T17:20:22;10.80;;;8.30;;
146;SDS011;45999;48.808;9.182;2022-12-20T17:22:50;12.03;;;8.50;;